KCNO/CNO METAR and TAF weather

Enter ICAO airport designator
Station Type Date Time Source
KCNO METAR 2018/10/22 17:03 UTC NOAA

KCNO 221703Z 00000KT 3SM HZ BKN011 19/15 A2995 RMK AO2 T01890150


Station Type Date Time Source
KCNO Decoded METAR 2018/10/22 17:03 UTC NOAA

CHINO AIRPORT, CA, United States (KCNO) 33-58N 117-38W 207M
Oct 22, 2018 - 01:03 PM EDT / 2018.10.22 1703 UTC
Wind: Calm:0
Visibility: 3 mile(s):0
Sky conditions: mostly cloudy
Weather: haze
Temperature: 66.0 F (18.9 C)
Dew Point: 59.0 F (15.0 C)
Relative Humidity: 78%
Pressure (altimeter): 29.95 in. Hg (1014 hPa)
ob: KCNO 221703Z 00000KT 3SM HZ BKN011 19/15 A2995 RMK AO2 T01890150
cycle: 17

Station Type Date Time Source
KCNO TAF UTC NOAA

Error!


Example: see airport list